createdAt,value
2023-04-08T00:02:09.934Z,8.90
2023-04-08T00:04:37.054Z,8.86
2023-04-08T00:07:06.875Z,8.82
2023-04-08T00:09:33.731Z,8.79
2023-04-08T00:12:00.872Z,8.76
2023-04-08T00:14:31.365Z,8.72
2023-04-08T00:16:58.389Z,8.69
2023-04-08T00:19:25.802Z,8.67
2023-04-08T00:21:53.329Z,8.64
2023-04-08T00:24:20.185Z,8.62
2023-04-08T00:26:47.003Z,8.59
2023-04-08T00:29:13.774Z,8.59
2023-04-08T00:31:41.196Z,8.59
2023-04-08T00:34:08.078Z,8.59
2023-04-08T00:36:35.701Z,8.58
2023-04-08T00:39:03.873Z,8.57
2023-04-08T00:41:30.768Z,8.55
2023-04-08T00:43:57.864Z,8.54
2023-04-08T00:46:26.383Z,8.55
2023-04-08T00:48:54.324Z,8.56
2023-04-08T00:51:22.326Z,8.57
2023-04-08T00:53:54.760Z,8.56
2023-04-08T00:56:22.825Z,8.54
2023-04-08T00:58:53.182Z,8.53
2023-04-08T01:01:26.285Z,8.53
2023-04-08T01:04:02.248Z,8.52
2023-04-08T01:07:01.078Z,8.51
2023-04-08T01:09:33.070Z,8.51
2023-04-08T01:12:03.886Z,8.50
2023-04-08T01:14:30.622Z,8.51
2023-04-08T01:16:58.591Z,8.50
2023-04-08T01:19:31.789Z,8.49
2023-04-08T01:22:12.940Z,8.49
2023-04-08T01:24:40.427Z,8.49
2023-04-08T01:27:07.255Z,8.48
2023-04-08T01:29:35.863Z,8.49
2023-04-08T01:32:05.038Z,8.48
2023-04-08T01:34:31.959Z,8.47
2023-04-08T01:36:58.738Z,8.46
2023-04-08T01:39:26.047Z,8.46
2023-04-08T01:41:53.173Z,8.45
2023-04-08T01:44:26.316Z,8.44
2023-04-08T01:46:53.725Z,8.43
2023-04-08T01:49:20.527Z,8.42
2023-04-08T01:51:48.010Z,8.40
2023-04-08T01:54:15.015Z,8.39
2023-04-08T01:56:42.106Z,8.38
2023-04-08T01:59:11.572Z,8.37
2023-04-08T02:01:39.805Z,8.35
2023-04-08T02:04:07.194Z,8.34
2023-04-08T02:06:34.166Z,8.33
2023-04-08T02:09:01.541Z,8.33
2023-04-08T02:11:28.958Z,8.32
2023-04-08T02:13:57.033Z,8.33
2023-04-08T02:16:40.063Z,8.33
2023-04-08T02:19:24.275Z,8.32
2023-04-08T02:22:06.482Z,8.31
2023-04-08T02:24:33.679Z,8.31
2023-04-08T02:27:00.796Z,8.30
2023-04-08T02:29:27.647Z,8.29
2023-04-08T02:31:58.544Z,8.28
2023-04-08T02:34:25.861Z,8.26
2023-04-08T02:36:52.767Z,8.24
2023-04-08T02:39:30.773Z,8.22
2023-04-08T02:41:57.654Z,8.20
2023-04-08T02:44:24.593Z,8.19
2023-04-08T02:46:51.401Z,8.19
2023-04-08T02:49:18.450Z,8.18
2023-04-08T02:51:45.342Z,8.18
2023-04-08T02:54:12.562Z,8.18
2023-04-08T02:56:40.002Z,8.18
2023-04-08T02:59:10.242Z,8.17
2023-04-08T03:01:37.379Z,8.16
2023-04-08T03:04:05.181Z,8.15
2023-04-08T03:06:32.798Z,8.16
2023-04-08T03:08:59.841Z,8.15
2023-04-08T03:11:26.687Z,8.14
2023-04-08T03:13:53.521Z,8.13
2023-04-08T03:16:36.663Z,8.13
2023-04-08T03:19:03.374Z,8.13
2023-04-08T03:21:31.336Z,8.14
2023-04-08T03:23:58.620Z,8.15
2023-04-08T03:26:26.778Z,8.16
2023-04-08T03:28:57.689Z,8.15
2023-04-08T03:31:25.498Z,8.14
2023-04-08T03:33:52.217Z,8.14
2023-04-08T03:36:19.924Z,8.14
2023-04-08T03:38:47.777Z,8.15
2023-04-08T03:41:15.002Z,8.16
2023-04-08T03:43:43.072Z,8.16
2023-04-08T03:46:10.371Z,8.17
2023-04-08T03:48:38.082Z,8.17
2023-04-08T03:51:04.937Z,8.17
2023-04-08T03:53:33.429Z,8.18
2023-04-08T03:56:02.294Z,8.19
2023-04-08T03:58:29.458Z,8.19
2023-04-08T04:00:57.415Z,8.19
2023-04-08T04:03:25.036Z,8.18
2023-04-08T04:05:53.250Z,8.18
2023-04-08T04:08:21.972Z,8.19
2023-04-08T04:10:49.213Z,8.20
2023-04-08T04:13:16.702Z,8.22
2023-04-08T04:15:44.978Z,8.24
2023-04-08T04:18:12.825Z,8.26
2023-04-08T04:20:43.543Z,8.30
2023-04-08T04:23:10.454Z,8.32
2023-04-08T04:25:40.218Z,8.36
2023-04-08T04:28:08.548Z,8.39
2023-04-08T04:30:39.786Z,8.43
2023-04-08T04:33:07.797Z,8.45
2023-04-08T04:35:34.590Z,8.49
2023-04-08T04:38:01.742Z,8.52
2023-04-08T04:40:29.945Z,8.55
2023-04-08T04:42:56.758Z,8.58
2023-04-08T04:45:23.442Z,8.61
2023-04-08T04:47:50.713Z,8.63
2023-04-08T04:50:17.797Z,8.65
2023-04-08T04:52:45.953Z,8.67
2023-04-08T04:55:15.198Z,8.70
2023-04-08T04:57:43.954Z,8.73
2023-04-08T05:00:12.127Z,8.77
2023-04-08T05:02:39.482Z,8.82
2023-04-08T05:05:06.941Z,8.86
2023-04-08T05:07:37.493Z,8.90
2023-04-08T05:10:05.595Z,8.92
2023-04-08T05:12:32.702Z,8.95
2023-04-08T05:15:00.253Z,8.97
2023-04-08T05:17:27.322Z,8.98
2023-04-08T05:19:54.196Z,8.99
2023-04-08T05:22:22.730Z,9.00
2023-04-08T05:24:51.119Z,9.03
2023-04-08T05:27:18.060Z,9.08
2023-04-08T05:29:45.634Z,9.12
2023-04-08T05:32:12.863Z,9.18
2023-04-08T05:34:40.110Z,9.23
2023-04-08T05:37:07.053Z,9.30
2023-04-08T05:39:34.012Z,9.39
2023-04-08T05:42:01.563Z,9.49
2023-04-08T05:44:28.593Z,9.62
2023-04-08T05:46:57.315Z,9.75
2023-04-08T05:49:24.202Z,9.89
2023-04-08T05:51:52.505Z,10.05
2023-04-08T05:54:19.350Z,10.28
2023-04-08T05:56:51.925Z,10.67
2023-04-08T05:59:19.179Z,11.28
2023-04-08T06:01:46.283Z,12.00
2023-04-08T06:04:14.112Z,12.69
2023-04-08T06:06:41.437Z,13.40
2023-04-08T06:09:09.640Z,14.12
2023-04-08T06:11:36.862Z,14.62
2023-04-08T06:14:03.702Z,14.83
2023-04-08T06:16:30.594Z,15.00
2023-04-08T06:18:57.544Z,15.44
2023-04-08T06:21:24.399Z,15.84
2023-04-08T06:23:51.195Z,16.32
2023-04-08T06:26:18.603Z,16.89
2023-04-08T06:28:45.364Z,17.24
2023-04-08T06:31:14.824Z,17.61
2023-04-08T06:33:42.366Z,17.85
2023-04-08T06:36:09.127Z,17.64
2023-04-08T06:38:36.606Z,17.33
2023-04-08T06:41:06.570Z,16.89
2023-04-08T06:43:36.110Z,16.49
2023-04-08T06:46:03.125Z,16.15
2023-04-08T06:48:31.783Z,15.94
2023-04-08T06:51:00.039Z,15.76
2023-04-08T06:53:28.780Z,15.51
2023-04-08T06:55:55.717Z,15.26
2023-04-08T06:58:25.372Z,15.11
2023-04-08T07:00:55.167Z,15.07
2023-04-08T07:03:22.969Z,15.03
2023-04-08T07:05:50.032Z,15.00
2023-04-08T07:08:16.912Z,15.03
2023-04-08T07:10:44.746Z,15.11
2023-04-08T07:13:12.700Z,15.29
2023-04-08T07:15:40.557Z,15.51
2023-04-08T07:18:08.547Z,15.65
2023-04-08T07:20:37.837Z,15.77
2023-04-08T07:23:04.937Z,15.89
2023-04-08T07:25:33.071Z,16.04
2023-04-08T07:28:00.261Z,16.17
2023-04-08T07:30:27.182Z,16.28
2023-04-08T07:32:55.077Z,16.24
2023-04-08T07:35:28.572Z,16.36
2023-04-08T07:37:57.131Z,16.49
2023-04-08T07:40:24.520Z,16.49
2023-04-08T07:42:51.615Z,16.71
2023-04-08T07:45:18.713Z,17.15
2023-04-08T07:47:45.558Z,17.69
2023-04-08T08:14:54.354Z,21.86
2023-04-08T08:17:22.074Z,22.10
2023-04-08T08:19:49.179Z,22.20
2023-04-08T08:22:16.305Z,22.39
2023-04-08T08:24:44.184Z,22.52
2023-04-08T08:27:10.949Z,22.63
2023-04-08T08:29:40.316Z,22.82
2023-04-08T08:32:06.950Z,22.80
2023-04-08T08:34:33.595Z,22.56
2023-04-08T08:37:00.488Z,22.31
2023-04-08T08:39:27.186Z,22.19
2023-04-08T08:41:58.809Z,22.28
2023-04-08T08:44:26.777Z,22.37
2023-04-08T08:46:53.458Z,22.54
2023-04-08T08:49:20.389Z,22.74
2023-04-08T08:51:47.502Z,22.96
2023-04-08T08:54:14.747Z,23.15
2023-04-08T08:56:42.724Z,23.51
2023-04-08T08:59:11.009Z,23.96
2023-04-08T09:01:40.098Z,24.24
2023-04-08T09:04:16.415Z,24.71
2023-04-08T09:06:47.040Z,25.33
2023-04-08T09:09:13.760Z,25.85
2023-04-08T09:11:45.475Z,26.23
2023-04-08T09:14:22.289Z,26.56
2023-04-08T09:16:49.343Z,26.81
2023-04-08T09:19:16.109Z,27.00
2023-04-08T09:21:43.190Z,27.18
2023-04-08T09:24:10.577Z,27.38
2023-04-08T09:26:38.247Z,27.20
2023-04-08T09:29:24.922Z,26.87
2023-04-08T09:31:56.868Z,26.52
2023-04-08T09:34:27.090Z,26.24
2023-04-08T09:36:54.248Z,26.03
2023-04-08T09:39:20.928Z,25.67
2023-04-08T09:41:49.359Z,25.51
2023-04-08T09:44:16.511Z,25.52
2023-04-08T09:46:54.480Z,25.53
2023-04-08T09:49:34.043Z,25.48
2023-04-08T09:52:10.743Z,25.47
2023-04-08T09:55:11.154Z,25.50
2023-04-08T09:57:50.946Z,25.44
2023-04-08T10:00:18.211Z,25.10
2023-04-08T10:03:26.838Z,24.87
2023-04-08T10:06:00.826Z,24.67
2023-04-08T10:08:31.050Z,24.48
2023-04-08T10:10:58.012Z,24.17
2023-04-08T10:13:24.836Z,23.97
2023-04-08T10:16:13.257Z,23.96
2023-04-08T10:18:40.056Z,23.95
2023-04-08T10:21:38.987Z,24.25
2023-04-08T10:24:07.519Z,24.57
2023-04-08T10:26:36.176Z,24.61
2023-04-08T10:29:18.685Z,24.21
2023-04-08T10:31:50.122Z,23.67
2023-04-08T10:34:19.736Z,23.62
2023-04-08T10:36:47.111Z,23.60
2023-04-08T10:39:17.640Z,23.44
2023-04-08T10:41:48.880Z,23.30
2023-04-08T10:44:19.699Z,23.02
2023-04-08T10:46:47.127Z,22.61
2023-04-08T10:49:14.602Z,22.37
2023-04-08T10:51:48.147Z,22.13
2023-04-08T10:54:16.504Z,21.97
2023-04-08T10:56:53.021Z,21.98
2023-04-08T10:59:31.571Z,22.04
2023-04-08T11:01:59.228Z,22.09
2023-04-08T11:04:26.728Z,22.26
2023-04-08T11:06:54.208Z,22.50
2023-04-08T11:09:21.072Z,22.65
2023-04-08T11:11:47.986Z,22.65
2023-04-08T11:14:16.801Z,22.63
2023-04-08T11:16:44.632Z,22.72
2023-04-08T11:19:12.237Z,22.58
2023-04-08T11:21:39.938Z,22.42
2023-04-08T11:24:11.516Z,22.28
2023-04-08T11:26:40.149Z,22.00
2023-04-08T11:29:12.175Z,21.83
2023-04-08T11:31:38.813Z,21.68
2023-04-08T11:34:05.728Z,21.36
2023-04-08T11:36:34.744Z,20.77
2023-04-08T11:39:06.447Z,20.40
2023-04-08T11:41:41.402Z,20.03
2023-04-08T11:44:08.161Z,19.73
2023-04-08T11:46:35.964Z,19.46
2023-04-08T11:49:07.316Z,19.23
2023-04-08T11:51:54.600Z,19.00
2023-04-08T11:54:28.721Z,18.92
2023-04-08T11:56:57.584Z,18.98
2023-04-08T11:59:25.996Z,19.08
2023-04-08T12:01:53.722Z,19.05
2023-04-08T12:04:20.705Z,18.87
2023-04-08T12:06:49.174Z,18.61
2023-04-08T12:09:16.261Z,18.43
2023-04-08T12:11:43.159Z,18.38
2023-04-08T12:14:09.793Z,18.42
2023-04-08T12:16:36.948Z,18.63
2023-04-08T12:19:03.648Z,18.85
2023-04-08T12:21:31.961Z,19.01
2023-04-08T12:23:58.667Z,19.09
2023-04-08T12:26:33.188Z,19.10
2023-04-08T12:29:01.121Z,19.03
2023-04-08T12:31:28.043Z,18.99
2023-04-08T12:33:54.959Z,19.01
2023-04-08T12:36:21.700Z,19.05
2023-04-08T12:38:51.435Z,19.07
2023-04-08T12:41:18.482Z,19.11
2023-04-08T12:43:45.397Z,19.13
2023-04-08T12:46:12.757Z,19.10
2023-04-08T12:48:40.939Z,19.05
2023-04-08T12:51:09.770Z,19.10
2023-04-08T12:53:37.980Z,19.16
2023-04-08T12:56:05.597Z,19.19
2023-04-08T12:58:34.707Z,19.12
2023-04-08T13:01:01.798Z,19.10
2023-04-08T13:03:31.381Z,19.12
2023-04-08T13:05:58.680Z,19.22
2023-04-08T13:08:25.371Z,19.33
2023-04-08T13:10:54.183Z,19.46
2023-04-08T13:13:21.468Z,19.59
2023-04-08T13:15:48.419Z,19.64
2023-04-08T13:18:20.154Z,19.60
2023-04-08T13:20:47.490Z,19.48
2023-04-08T13:23:14.739Z,19.23
2023-04-08T13:25:41.324Z,18.90
2023-04-08T13:28:11.090Z,18.22
2023-04-08T13:30:40.630Z,17.43
2023-04-08T13:33:07.871Z,16.80
2023-04-08T13:35:34.836Z,16.26
2023-04-08T13:38:01.461Z,15.83
2023-04-08T13:40:28.290Z,15.44
2023-04-08T13:42:55.362Z,15.09
2023-04-08T13:45:22.292Z,14.75
2023-04-08T13:47:49.026Z,14.48
2023-04-08T13:50:16.507Z,14.24
2023-04-08T13:52:43.105Z,14.00
2023-04-08T13:55:11.988Z,13.81
2023-04-08T13:57:40.108Z,13.64
2023-04-08T14:00:07.998Z,13.58
2023-04-08T14:02:37.946Z,13.58
2023-04-08T14:05:06.041Z,13.57
2023-04-08T14:07:32.859Z,13.54
2023-04-08T14:10:01.006Z,13.51
2023-04-08T14:12:28.052Z,13.48
2023-04-08T14:14:58.634Z,13.45
2023-04-08T14:17:25.930Z,13.42
2023-04-08T14:19:52.892Z,13.40
2023-04-08T14:22:20.096Z,13.39
2023-04-08T14:24:47.388Z,13.40
2023-04-08T14:27:14.024Z,13.38
2023-04-08T14:29:42.391Z,13.34
2023-04-08T14:32:08.962Z,13.29
2023-04-08T14:34:36.869Z,13.24
2023-04-08T14:37:04.079Z,13.18
2023-04-08T14:39:30.847Z,13.13
2023-04-08T14:41:57.894Z,13.09
2023-04-08T14:44:25.198Z,13.06
2023-04-08T14:46:51.902Z,13.02
2023-04-08T14:49:19.091Z,12.98
2023-04-08T14:51:45.761Z,12.96
2023-04-08T14:54:16.300Z,12.96
2023-04-08T14:56:42.982Z,12.96
2023-04-08T14:59:10.261Z,12.97
2023-04-08T15:01:36.889Z,13.00
2023-04-08T15:04:04.133Z,13.04
2023-04-08T15:06:31.726Z,13.09
2023-04-08T15:08:59.144Z,13.16
2023-04-08T15:11:26.218Z,13.23
2023-04-08T15:13:58.645Z,13.31
2023-04-08T15:16:26.044Z,13.39
2023-04-08T15:18:53.142Z,13.47
2023-04-08T15:21:23.753Z,13.54
2023-04-08T15:23:51.010Z,13.58
2023-04-08T15:26:18.077Z,13.61
2023-04-08T15:28:45.055Z,13.63
2023-04-08T15:31:13.051Z,13.64
2023-04-08T15:33:42.342Z,13.65
2023-04-08T15:36:09.309Z,13.66
2023-04-08T15:38:36.598Z,13.65
2023-04-08T15:41:03.431Z,13.62
2023-04-08T15:43:30.384Z,13.57
2023-04-08T15:45:57.017Z,13.53
2023-04-08T15:48:25.354Z,13.48
2023-04-08T15:50:53.477Z,13.42
2023-04-08T15:53:20.390Z,13.35
2023-04-08T15:55:47.054Z,13.26
2023-04-08T15:58:15.272Z,13.19
2023-04-08T16:00:41.855Z,13.12
2023-04-08T16:03:28.461Z,13.03
2023-04-08T16:05:55.867Z,12.96
2023-04-08T16:08:23.077Z,12.90
2023-04-08T16:10:50.213Z,12.84
2023-04-08T16:13:18.240Z,12.79
2023-04-08T16:15:46.408Z,12.74
2023-04-08T16:18:13.088Z,12.68
2023-04-08T16:20:44.134Z,12.62
2023-04-08T16:23:10.811Z,12.57
2023-04-08T16:25:37.432Z,12.53
2023-04-08T16:28:04.256Z,12.48
2023-04-08T16:30:30.888Z,12.45
2023-04-08T16:33:00.903Z,12.41
2023-04-08T16:35:27.842Z,12.37
2023-04-08T16:37:54.924Z,12.32
2023-04-08T16:40:21.627Z,12.28
2023-04-08T16:42:48.201Z,12.22
2023-04-08T16:45:15.459Z,12.16
2023-04-08T16:47:42.889Z,12.12
2023-04-08T16:50:09.747Z,12.07
2023-04-08T16:52:36.627Z,12.01
2023-04-08T16:55:09.498Z,11.96
2023-04-08T16:57:36.866Z,11.92
2023-04-08T17:00:04.087Z,11.85
2023-04-08T17:02:33.569Z,11.79
2023-04-08T17:05:00.667Z,11.74
2023-04-08T17:07:27.761Z,11.70
2023-04-08T17:09:55.246Z,11.64
2023-04-08T17:12:22.157Z,11.59
2023-04-08T17:14:48.676Z,11.54
2023-04-08T17:17:15.508Z,11.49
2023-04-08T17:19:43.614Z,11.44
2023-04-08T17:22:14.720Z,11.37
2023-04-08T17:24:41.577Z,11.31
2023-04-08T17:27:08.506Z,11.26
2023-04-08T17:29:35.934Z,11.21
2023-04-08T17:32:03.188Z,11.17
2023-04-08T17:40:52.005Z,11.06
2023-04-08T17:43:18.883Z,11.00
2023-04-08T17:45:46.306Z,10.98
2023-04-08T17:48:13.219Z,10.95
2023-04-08T17:50:40.699Z,10.93
2023-04-08T17:53:07.301Z,10.92
2023-04-08T17:55:36.955Z,10.92
2023-04-08T17:58:04.275Z,10.91
2023-04-08T18:00:31.670Z,10.90
2023-04-08T18:02:58.961Z,10.90
2023-04-08T18:05:26.736Z,10.90
2023-04-08T18:07:53.675Z,10.90
2023-04-08T18:10:22.512Z,10.90
2023-04-08T18:12:54.622Z,10.91
2023-04-08T18:15:24.467Z,10.91
2023-04-08T18:17:51.154Z,10.91
2023-04-08T18:20:18.690Z,10.92
2023-04-08T18:22:45.998Z,10.92
2023-04-08T18:25:13.212Z,10.93
2023-04-08T18:27:40.381Z,10.93
2023-04-08T18:30:07.850Z,10.93
2023-04-08T18:32:34.932Z,10.93
2023-04-08T18:35:01.945Z,10.93
2023-04-08T18:37:30.446Z,10.92
2023-04-08T18:39:58.376Z,10.92
2023-04-08T18:42:25.239Z,10.91
2023-04-08T18:44:51.814Z,10.91
2023-04-08T18:47:19.527Z,10.89
2023-04-08T18:49:46.676Z,10.88
2023-04-08T18:52:15.753Z,10.87
2023-04-08T18:54:42.332Z,10.86
2023-04-08T18:57:15.241Z,10.86
2023-04-08T18:59:47.817Z,10.85
2023-04-08T19:02:15.701Z,10.85
2023-04-08T19:04:42.872Z,10.85
2023-04-08T19:07:10.297Z,10.84
2023-04-08T19:09:36.873Z,10.83
2023-04-08T19:12:03.882Z,10.82
2023-04-08T19:14:30.936Z,10.82
2023-04-08T19:17:02.463Z,10.80
2023-04-08T19:19:30.077Z,10.77
2023-04-08T19:21:56.716Z,10.75
2023-04-08T19:24:25.682Z,10.72
2023-04-08T19:26:52.529Z,10.67
2023-04-08T19:29:22.385Z,10.63
2023-04-08T19:31:49.893Z,10.59
2023-04-08T19:34:16.613Z,10.54
2023-04-08T19:36:44.006Z,10.48
2023-04-08T19:39:10.827Z,10.44
2023-04-08T19:41:37.451Z,10.39
2023-04-08T19:44:04.979Z,10.36
2023-04-08T19:46:32.217Z,10.33
2023-04-08T19:48:59.766Z,10.32
2023-04-08T19:51:28.687Z,10.30
2023-04-08T19:53:55.700Z,10.28
2023-04-08T19:56:23.119Z,10.27
2023-04-08T19:58:50.122Z,10.24
2023-04-08T20:01:20.763Z,10.21
2023-04-08T20:03:49.550Z,10.19
2023-04-08T20:06:17.018Z,10.16
2023-04-08T20:08:45.765Z,10.12
2023-04-08T20:11:12.566Z,10.09
2023-04-08T20:13:39.596Z,10.06
2023-04-08T20:16:09.162Z,10.04
2023-04-08T20:18:37.219Z,10.02
2023-04-08T20:21:07.495Z,9.99
2023-04-08T20:23:35.721Z,9.97
2023-04-08T20:26:02.282Z,9.95
2023-04-08T20:28:30.047Z,9.94
2023-04-08T20:30:56.696Z,9.91
2023-04-08T20:33:23.298Z,9.88
2023-04-08T20:35:52.528Z,9.85
2023-04-08T20:38:19.485Z,9.80
2023-04-08T20:40:51.131Z,9.74
2023-04-08T20:43:18.582Z,9.66
2023-04-08T20:45:45.258Z,9.58
2023-04-08T20:48:12.955Z,9.49
2023-04-08T20:50:40.116Z,9.42
2023-04-08T20:53:12.274Z,9.33
2023-04-08T20:55:40.685Z,9.27
2023-04-08T20:58:07.437Z,9.20
2023-04-08T21:00:35.085Z,9.12
2023-04-08T21:03:02.381Z,9.06
2023-04-08T21:05:29.853Z,9.00
2023-04-08T21:07:56.636Z,8.93
2023-04-08T21:10:23.657Z,8.88
2023-04-08T21:12:56.686Z,8.81
2023-04-08T21:15:24.772Z,8.75
2023-04-08T21:17:51.444Z,8.69
2023-04-08T21:20:18.335Z,8.63
2023-04-08T21:22:45.842Z,8.58
2023-04-08T21:25:13.201Z,8.52
2023-04-08T21:27:40.668Z,8.48
2023-04-08T21:30:08.014Z,8.44
2023-04-08T21:32:37.049Z,8.39
2023-04-08T21:35:04.331Z,8.35
2023-04-08T21:37:31.254Z,8.31
2023-04-08T21:39:59.598Z,8.27
2023-04-08T21:42:27.110Z,8.23
2023-04-08T21:44:55.341Z,8.19
2023-04-08T21:47:22.009Z,8.16
2023-04-08T21:49:49.385Z,8.14
2023-04-08T21:52:17.304Z,8.12
2023-04-08T21:54:43.874Z,8.11
2023-04-08T21:57:10.783Z,8.10
2023-04-08T21:59:37.382Z,8.10
2023-04-08T22:02:04.142Z,8.11
2023-04-08T22:04:31.121Z,8.13
2023-04-08T22:06:57.770Z,8.15
2023-04-08T22:09:27.315Z,8.18
2023-04-08T22:11:54.182Z,8.21
2023-04-08T22:14:22.935Z,8.25
2023-04-08T22:16:50.308Z,8.28
2023-04-08T22:19:17.191Z,8.30
2023-04-08T22:21:44.069Z,8.33
2023-04-08T22:24:10.900Z,8.35
2023-04-08T22:26:37.719Z,8.37
2023-04-08T22:29:06.967Z,8.39
2023-04-08T22:31:34.899Z,8.42
2023-04-08T22:34:02.522Z,8.42
2023-04-08T22:36:29.286Z,8.44
2023-04-08T22:38:57.207Z,8.44
2023-04-08T22:41:24.151Z,8.44
2023-04-08T22:43:51.241Z,8.43
2023-04-08T22:46:19.397Z,8.42
2023-04-08T22:48:46.131Z,8.40
2023-04-08T22:51:12.975Z,8.37
2023-04-08T22:53:40.484Z,8.34
2023-04-08T22:56:07.077Z,8.29
2023-04-08T22:58:33.973Z,8.24
2023-04-08T23:01:01.971Z,8.17
2023-04-08T23:03:30.001Z,8.10
2023-04-08T23:05:57.887Z,8.05
2023-04-08T23:08:26.788Z,7.99
2023-04-08T23:10:53.544Z,7.94
2023-04-08T23:13:20.543Z,7.88
2023-04-08T23:15:48.025Z,7.83
2023-04-08T23:18:14.668Z,7.78
2023-04-08T23:20:46.923Z,7.72
2023-04-08T23:23:13.891Z,7.67
2023-04-08T23:25:40.624Z,7.62
2023-04-08T23:28:10.866Z,7.58
2023-04-08T23:30:39.349Z,7.53
2023-04-08T23:33:06.592Z,7.48
2023-04-08T23:35:33.471Z,7.43
2023-04-08T23:38:00.421Z,7.39
2023-04-08T23:40:27.220Z,7.34
2023-04-08T23:42:55.365Z,7.30
2023-04-08T23:45:21.959Z,7.26
2023-04-08T23:47:48.676Z,7.22
2023-04-08T23:50:17.507Z,7.18
2023-04-08T23:52:44.457Z,7.14
2023-04-08T23:55:17.824Z,7.11
2023-04-08T23:57:48.593Z,7.08
